sensor_id;sensor_type;location;lat;lon;timestamp;pressure;altitude;pressure_sealevel;temperature;humidity
63552;BME280;49698;48.072;7.800;2023-02-13T00:00:36;101273.06;;;-0.46;92.43
63552;BME280;49698;48.072;7.800;2023-02-13T00:03:04;101275.69;;;-0.46;92.07
63552;BME280;49698;48.072;7.800;2023-02-13T00:05:32;101276.16;;;-0.51;91.82
63552;BME280;49698;48.072;7.800;2023-02-13T00:08:00;101267.59;;;-0.53;92.09
63552;BME280;49698;48.072;7.800;2023-02-13T00:10:28;101274.84;;;-0.55;92.31
63552;BME280;49698;48.072;7.800;2023-02-13T00:12:56;101274.19;;;-0.57;92.39
63552;BME280;49698;48.072;7.800;2023-02-13T00:15:25;101275.16;;;-0.58;92.57
63552;BME280;49698;48.072;7.800;2023-02-13T00:17:53;101274.34;;;-0.59;92.75
63552;BME280;49698;48.072;7.800;2023-02-13T00:20:21;101277.16;;;-0.60;92.47
63552;BME280;49698;48.072;7.800;2023-02-13T00:22:49;101278.28;;;-0.63;92.29
63552;BME280;49698;48.072;7.800;2023-02-13T00:25:18;101276.66;;;-0.64;92.40
63552;BME280;49698;48.072;7.800;2023-02-13T00:27:45;101279.47;;;-0.65;92.60
63552;BME280;49698;48.072;7.800;2023-02-13T00:30:14;101282.44;;;-0.68;92.60
63552;BME280;49698;48.072;7.800;2023-02-13T00:32:43;101280.09;;;-0.71;92.45
63552;BME280;49698;48.072;7.800;2023-02-13T00:35:11;101284.75;;;-0.73;92.40
63552;BME280;49698;48.072;7.800;2023-02-13T00:37:39;101289.34;;;-0.76;92.63
63552;BME280;49698;48.072;7.800;2023-02-13T00:40:08;101284.25;;;-0.77;92.78
63552;BME280;49698;48.072;7.800;2023-02-13T00:42:36;101280.75;;;-0.78;92.92
63552;BME280;49698;48.072;7.800;2023-02-13T00:45:05;101286.03;;;-0.78;92.61
63552;BME280;49698;48.072;7.800;2023-02-13T00:47:33;101279.09;;;-0.79;92.76
63552;BME280;49698;48.072;7.800;2023-02-13T00:50:02;101278.28;;;-0.79;92.71
63552;BME280;49698;48.072;7.800;2023-02-13T00:52:30;101279.41;;;-0.82;92.70
63552;BME280;49698;48.072;7.800;2023-02-13T00:54:58;101285.06;;;-0.85;93.02
63552;BME280;49698;48.072;7.800;2023-02-13T00:57:26;101285.38;;;-0.88;92.69
63552;BME280;49698;48.072;7.800;2023-02-13T00:59:54;101289.00;;;-0.89;92.73
63552;BME280;49698;48.072;7.800;2023-02-13T01:02:22;101289.00;;;-0.89;92.99
63552;BME280;49698;48.072;7.800;2023-02-13T01:04:51;101293.44;;;-0.89;93.02
63552;BME280;49698;48.072;7.800;2023-02-13T01:07:20;101291.63;;;-0.89;92.94
63552;BME280;49698;48.072;7.800;2023-02-13T01:09:48;101291.78;;;-0.90;92.70
63552;BME280;49698;48.072;7.800;2023-02-13T01:12:16;101284.84;;;-0.91;92.59
63552;BME280;49698;48.072;7.800;2023-02-13T01:14:43;101291.97;;;-0.92;92.89
63552;BME280;49698;48.072;7.800;2023-02-13T01:17:12;101293.78;;;-0.92;92.68
63552;BME280;49698;48.072;7.800;2023-02-13T01:19:40;101296.56;;;-0.94;92.70
63552;BME280;49698;48.072;7.800;2023-02-13T01:22:08;101293.25;;;-0.96;92.67
63552;BME280;49698;48.072;7.800;2023-02-13T01:24:37;101285.66;;;-0.99;92.75
63552;BME280;49698;48.072;7.800;2023-02-13T01:27:05;101286.81;;;-1.02;92.78
63552;BME280;49698;48.072;7.800;2023-02-13T01:29:33;101294.22;;;-1.05;93.00
63552;BME280;49698;48.072;7.800;2023-02-13T01:32:01;101294.22;;;-1.05;93.08
63552;BME280;49698;48.072;7.800;2023-02-13T01:34:31;101292.56;;;-1.06;92.74
63552;BME280;49698;48.072;7.800;2023-02-13T01:36:59;101300.47;;;-1.06;92.62
63552;BME280;49698;48.072;7.800;2023-02-13T01:39:27;101297.19;;;-1.08;92.84
63552;BME280;49698;48.072;7.800;2023-02-13T01:41:56;101290.25;;;-1.09;92.72
63552;BME280;49698;48.072;7.800;2023-02-13T01:44:44;101295.84;;;-1.12;92.59
63552;BME280;49698;48.072;7.800;2023-02-13T01:47:17;101291.56;;;-1.13;92.75
63552;BME280;49698;48.072;7.800;2023-02-13T01:49:48;101295.19;;;-1.14;92.86
63552;BME280;49698;48.072;7.800;2023-02-13T01:52:17;101297.13;;;-1.16;92.81
63552;BME280;49698;48.072;7.800;2023-02-13T01:54:45;101295.50;;;-1.17;93.09
63552;BME280;49698;48.072;7.800;2023-02-13T01:57:19;101293.03;;;-1.19;93.34
63552;BME280;49698;48.072;7.800;2023-02-13T01:59:51;101287.88;;;-1.20;92.79
63552;BME280;49698;48.072;7.800;2023-02-13T02:02:22;101288.88;;;-1.21;92.99
63552;BME280;49698;48.072;7.800;2023-02-13T02:04:51;101284.44;;;-1.21;92.79
63552;BME280;49698;48.072;7.800;2023-02-13T02:07:22;101292.50;;;-1.23;93.03
63552;BME280;49698;48.072;7.800;2023-02-13T02:09:53;101288.22;;;-1.24;92.84
63552;BME280;49698;48.072;7.800;2023-02-13T02:12:26;101283.09;;;-1.25;92.97
63552;BME280;49698;48.072;7.800;2023-02-13T02:14:56;101289.19;;;-1.25;92.77
63552;BME280;49698;48.072;7.800;2023-02-13T02:17:29;101277.00;;;-1.26;92.70
63552;BME280;49698;48.072;7.800;2023-02-13T02:20:06;101269.25;;;-1.27;92.55
63552;BME280;49698;48.072;7.800;2023-02-13T02:23:08;101257.03;;;-1.28;92.90
63552;BME280;49698;48.072;7.800;2023-02-13T02:25:56;101265.13;;;-1.30;92.36
63552;BME280;49698;48.072;7.800;2023-02-13T02:28:44;101270.69;;;-1.33;92.79
63552;BME280;49698;48.072;7.800;2023-02-13T02:34:24;101260.97;;;-1.32;92.63
63552;BME280;49698;48.072;7.800;2023-02-13T02:37:04;101257.69;;;-1.34;92.78
63552;BME280;49698;48.072;7.800;2023-02-13T02:39:44;101257.81;;;-1.36;92.80
63552;BME280;49698;48.072;7.800;2023-02-13T02:42:21;101258.81;;;-1.37;92.95
63552;BME280;49698;48.072;7.800;2023-02-13T02:45:04;101255.34;;;-1.37;92.34
63552;BME280;49698;48.072;7.800;2023-02-13T02:47:41;101260.81;;;-1.39;92.75
63552;BME280;49698;48.072;7.800;2023-02-13T02:50:34;101266.06;;;-1.39;92.65
63552;BME280;49698;48.072;7.800;2023-02-13T02:53:16;101257.47;;;-1.41;92.84
63552;BME280;49698;48.072;7.800;2023-02-13T02:55:51;101271.34;;;-1.39;92.79
63552;BME280;49698;48.072;7.800;2023-02-13T02:58:26;101269.84;;;-1.41;92.57
63552;BME280;49698;48.072;7.800;2023-02-13T03:01:14;101268.34;;;-1.44;92.88
63552;BME280;49698;48.072;7.800;2023-02-13T03:04:02;101270.97;;;-1.44;92.72
63552;BME280;49698;48.072;7.800;2023-02-13T03:06:50;101276.44;;;-1.45;92.55
63552;BME280;49698;48.072;7.800;2023-02-13T03:09:23;101266.19;;;-1.49;92.85
63552;BME280;49698;48.072;7.800;2023-02-13T03:12:13;101278.38;;;-1.48;92.28
63552;BME280;49698;48.072;7.800;2023-02-13T03:15:02;101268.16;;;-1.51;92.58
63552;BME280;49698;48.072;7.800;2023-02-13T03:17:30;101270.94;;;-1.52;92.60
63552;BME280;49698;48.072;7.800;2023-02-13T03:20:22;101276.22;;;-1.52;92.79
63552;BME280;49698;48.072;7.800;2023-02-13T03:23:24;101279.69;;;-1.52;92.72
63552;BME280;49698;48.072;7.800;2023-02-13T03:26:06;101285.94;;;-1.53;92.62
63552;BME280;49698;48.072;7.800;2023-02-13T03:28:47;101292.88;;;-1.52;92.46
63552;BME280;49698;48.072;7.800;2023-02-13T03:31:43;101289.56;;;-1.54;92.44
63552;BME280;49698;48.072;7.800;2023-02-13T03:34:19;101292.34;;;-1.55;92.11
63552;BME280;49698;48.072;7.800;2023-02-13T03:36:52;101288.06;;;-1.56;92.67
63552;BME280;49698;48.072;7.800;2023-02-13T03:39:47;101291.69;;;-1.57;92.11
63552;BME280;49698;48.072;7.800;2023-02-13T03:42:22;101289.38;;;-1.60;92.28
63552;BME280;49698;48.072;7.800;2023-02-13T03:44:58;101294.94;;;-1.63;92.26
63552;BME280;49698;48.072;7.800;2023-02-13T03:47:46;101303.84;;;-1.64;92.86
63552;BME280;49698;48.072;7.800;2023-02-13T03:50:16;101293.47;;;-1.66;92.33
63552;BME280;49698;48.072;7.800;2023-02-13T03:52:49;101290.66;;;-1.64;92.71
63552;BME280;49698;48.072;7.800;2023-02-13T03:55:21;101294.28;;;-1.65;92.42
63552;BME280;49698;48.072;7.800;2023-02-13T03:58:13;101302.34;;;-1.67;92.90
63552;BME280;49698;48.072;7.800;2023-02-13T04:01:01;101298.88;;;-1.67;92.50
63552;BME280;49698;48.072;7.800;2023-02-13T04:03:36;101291.97;;;-1.68;92.76
63552;BME280;49698;48.072;7.800;2023-02-13T04:06:09;101307.78;;;-1.68;92.61
63552;BME280;49698;48.072;7.800;2023-02-13T04:08:40;101314.88;;;-1.69;92.84
63552;BME280;49698;48.072;7.800;2023-02-13T04:11:12;101314.69;;;-1.67;92.57
63552;BME280;49698;48.072;7.800;2023-02-13T04:13:44;101313.06;;;-1.68;92.54
63552;BME280;49698;48.072;7.800;2023-02-13T04:16:16;101320.97;;;-1.68;92.76
63552;BME280;49698;48.072;7.800;2023-02-13T04:18:47;101314.06;;;-1.69;92.65
63552;BME280;49698;48.072;7.800;2023-02-13T04:21:16;101320.28;;;-1.70;93.18
63552;BME280;49698;48.072;7.800;2023-02-13T04:23:45;101312.38;;;-1.70;93.01
63552;BME280;49698;48.072;7.800;2023-02-13T04:26:15;101320.28;;;-1.70;92.79
63552;BME280;49698;48.072;7.800;2023-02-13T04:28:44;101315.00;;;-1.70;93.25
63552;BME280;49698;48.072;7.800;2023-02-13T04:31:12;101320.28;;;-1.70;93.00
63552;BME280;49698;48.072;7.800;2023-02-13T04:33:40;101323.91;;;-1.72;92.60
63552;BME280;49698;48.072;7.800;2023-02-13T04:36:08;101317.81;;;-1.72;93.15
63552;BME280;49698;48.072;7.800;2023-02-13T04:38:36;101322.25;;;-1.73;92.95
63552;BME280;49698;48.072;7.800;2023-02-13T04:41:05;101315.47;;;-1.75;92.82
63552;BME280;49698;48.072;7.800;2023-02-13T04:43:33;101317.59;;;-1.79;93.35
63552;BME280;49698;48.072;7.800;2023-02-13T04:46:01;101317.94;;;-1.82;93.12
63552;BME280;49698;48.072;7.800;2023-02-13T04:48:29;101325.16;;;-1.84;93.26
63552;BME280;49698;48.072;7.800;2023-02-13T04:50:57;101325.16;;;-1.84;93.16
63552;BME280;49698;48.072;7.800;2023-02-13T04:53:25;101321.53;;;-1.83;93.12
63552;BME280;49698;48.072;7.800;2023-02-13T04:55:53;101316.41;;;-1.84;92.77
63552;BME280;49698;48.072;7.800;2023-02-13T04:58:22;101328.59;;;-1.83;92.97
63552;BME280;49698;48.072;7.800;2023-02-13T05:00:50;101331.41;;;-1.85;93.35
63552;BME280;49698;48.072;7.800;2023-02-13T05:03:18;101324.31;;;-1.84;93.15
63552;BME280;49698;48.072;7.800;2023-02-13T05:05:47;101326.78;;;-1.83;93.46
63552;BME280;49698;48.072;7.800;2023-02-13T05:08:15;101325.66;;;-1.80;93.43
63552;BME280;49698;48.072;7.800;2023-02-13T05:10:43;101334.75;;;-1.75;92.98
63552;BME280;49698;48.072;7.800;2023-02-13T05:13:11;101335.78;;;-1.67;93.48
63552;BME280;49698;48.072;7.800;2023-02-13T05:15:41;101333.53;;;-1.62;92.80
63552;BME280;49698;48.072;7.800;2023-02-13T05:18:09;101341.50;;;-1.54;93.01
63552;BME280;49698;48.072;7.800;2023-02-13T05:20:36;101335.59;;;-1.48;92.45
63552;BME280;49698;48.072;7.800;2023-02-13T05:23:04;101338.59;;;-1.43;92.93
63552;BME280;49698;48.072;7.800;2023-02-13T05:25:50;101333.50;;;-1.36;92.79
63552;BME280;49698;48.072;7.800;2023-02-13T05:28:18;101336.34;;;-1.30;92.92
63552;BME280;49698;48.072;7.800;2023-02-13T05:31:04;101335.72;;;-1.24;92.94
63552;BME280;49698;48.072;7.800;2023-02-13T05:33:32;101332.75;;;-1.20;93.00
63552;BME280;49698;48.072;7.800;2023-02-13T05:36:00;101336.59;;;-1.15;93.29
63552;BME280;49698;48.072;7.800;2023-02-13T05:38:28;101340.38;;;-1.09;92.81
63552;BME280;49698;48.072;7.800;2023-02-13T05:40:57;101341.72;;;-1.05;93.07
63552;BME280;49698;48.072;7.800;2023-02-13T05:43:25;101350.00;;;-1.00;92.70
63552;BME280;49698;48.072;7.800;2023-02-13T05:46:00;101345.25;;;-0.96;92.73
63552;BME280;49698;48.072;7.800;2023-02-13T05:48:31;101350.84;;;-0.91;92.98
63552;BME280;49698;48.072;7.800;2023-02-13T05:50:59;101349.53;;;-0.87;92.88
63552;BME280;49698;48.072;7.800;2023-02-13T05:53:27;101346.59;;;-0.84;92.77
63552;BME280;49698;48.072;7.800;2023-02-13T05:55:55;101359.31;;;-0.80;92.97
63552;BME280;49698;48.072;7.800;2023-02-13T05:58:23;101350.06;;;-0.76;93.20
63552;BME280;49698;48.072;7.800;2023-02-13T06:00:55;101362.97;;;-0.72;93.07
63552;BME280;49698;48.072;7.800;2023-02-13T06:03:23;101351.91;;;-0.68;93.13
63552;BME280;49698;48.072;7.800;2023-02-13T06:05:53;101354.25;;;-0.65;93.16
63552;BME280;49698;48.072;7.800;2023-02-13T06:08:21;101353.75;;;-0.60;93.01
63552;BME280;49698;48.072;7.800;2023-02-13T06:10:49;101350.63;;;-0.56;93.35
63552;BME280;49698;48.072;7.800;2023-02-13T06:13:18;101354.75;;;-0.53;93.43
63552;BME280;49698;48.072;7.800;2023-02-13T06:15:46;101362.38;;;-0.50;94.08
63552;BME280;49698;48.072;7.800;2023-02-13T06:18:14;101356.72;;;-0.47;94.08
63552;BME280;49698;48.072;7.800;2023-02-13T06:20:41;101361.69;;;-0.44;94.22
63552;BME280;49698;48.072;7.800;2023-02-13T06:23:11;101366.66;;;-0.41;94.15
63552;BME280;49698;48.072;7.800;2023-02-13T06:25:39;101368.00;;;-0.37;93.89
63552;BME280;49698;48.072;7.800;2023-02-13T06:28:07;101369.63;;;-0.36;93.95
63552;BME280;49698;48.072;7.800;2023-02-13T06:30:35;101364.34;;;-0.36;94.13
63552;BME280;49698;48.072;7.800;2023-02-13T06:33:03;101367.66;;;-0.34;94.16
63552;BME280;49698;48.072;7.800;2023-02-13T06:35:31;101369.31;;;-0.33;94.43
63552;BME280;49698;48.072;7.800;2023-02-13T06:37:59;101364.03;;;-0.33;94.91
63552;BME280;49698;48.072;7.800;2023-02-13T06:40:28;101361.22;;;-0.31;95.15
63552;BME280;49698;48.072;7.800;2023-02-13T06:42:56;101356.44;;;-0.28;95.34
63552;BME280;49698;48.072;7.800;2023-02-13T06:45:24;101361.41;;;-0.25;95.63
63552;BME280;49698;48.072;7.800;2023-02-13T06:47:52;101363.72;;;-0.21;95.56
63552;BME280;49698;48.072;7.800;2023-02-13T06:50:20;101364.38;;;-0.19;95.78
63552;BME280;49698;48.072;7.800;2023-02-13T06:52:49;101364.88;;;-0.16;95.65
63552;BME280;49698;48.072;7.800;2023-02-13T06:55:17;101368.19;;;-0.14;95.70
63552;BME280;49698;48.072;7.800;2023-02-13T06:57:48;101371.31;;;-0.10;95.90
63552;BME280;49698;48.072;7.800;2023-02-13T07:00:17;101375.28;;;-0.06;95.86
63552;BME280;49698;48.072;7.800;2023-02-13T07:02:46;101368.00;;;-0.04;95.72
63552;BME280;49698;48.072;7.800;2023-02-13T07:05:14;101378.25;;;-0.01;95.91
63552;BME280;49698;48.072;7.800;2023-02-13T07:07:42;101374.97;;;0.05;95.88
63552;BME280;49698;48.072;7.800;2023-02-13T07:10:12;101369.50;;;0.07;95.95
63552;BME280;49698;48.072;7.800;2023-02-13T07:12:40;101371.81;;;0.10;95.88
63552;BME280;49698;48.072;7.800;2023-02-13T07:15:10;101369.69;;;0.13;96.08
63552;BME280;49698;48.072;7.800;2023-02-13T07:17:38;101372.00;;;0.16;95.78
63552;BME280;49698;48.072;7.800;2023-02-13T07:20:07;101371.50;;;0.21;96.02
63552;BME280;49698;48.072;7.800;2023-02-13T07:22:35;101373.63;;;0.26;95.98
63552;BME280;49698;48.072;7.800;2023-02-13T07:25:04;101374.81;;;0.31;95.88
63552;BME280;49698;48.072;7.800;2023-02-13T07:27:32;101376.13;;;0.35;95.72
63552;BME280;49698;48.072;7.800;2023-02-13T07:30:00;101388.84;;;0.40;95.80
63552;BME280;49698;48.072;7.800;2023-02-13T07:32:29;101392.13;;;0.42;96.18
63552;BME280;49698;48.072;7.800;2023-02-13T07:34:57;101386.50;;;0.45;96.02
63552;BME280;49698;48.072;7.800;2023-02-13T07:37:28;101393.44;;;0.46;95.97
63552;BME280;49698;48.072;7.800;2023-02-13T07:39:56;101399.41;;;0.48;96.21
63552;BME280;49698;48.072;7.800;2023-02-13T07:42:24;101392.63;;;0.45;96.04
63552;BME280;49698;48.072;7.800;2023-02-13T07:44:52;101398.09;;;0.44;96.30
63552;BME280;49698;48.072;7.800;2023-02-13T07:47:20;101396.75;;;0.48;96.49
63552;BME280;49698;48.072;7.800;2023-02-13T07:49:49;101395.44;;;0.52;96.82
63552;BME280;49698;48.072;7.800;2023-02-13T07:52:17;101400.72;;;0.52;96.93
63552;BME280;49698;48.072;7.800;2023-02-13T07:54:48;101398.38;;;0.57;96.87
63552;BME280;49698;48.072;7.800;2023-02-13T07:57:17;101403.00;;;0.63;96.84
63552;BME280;49698;48.072;7.800;2023-02-13T07:59:47;101396.56;;;0.66;97.00
63552;BME280;49698;48.072;7.800;2023-02-13T08:02:15;101398.72;;;0.70;97.09
63552;BME280;49698;48.072;7.800;2023-02-13T08:04:43;101404.31;;;0.76;97.16
63552;BME280;49698;48.072;7.800;2023-02-13T08:07:15;101401.34;;;0.79;96.91
63552;BME280;49698;48.072;7.800;2023-02-13T08:09:43;101403.94;;;0.87;96.76
63552;BME280;49698;48.072;7.800;2023-02-13T08:12:30;101398.63;;;0.95;96.64
63552;BME280;49698;48.072;7.800;2023-02-13T08:14:59;101395.31;;;1.01;96.38
63552;BME280;49698;48.072;7.800;2023-02-13T08:17:27;101390.50;;;1.05;95.87
63552;BME280;49698;48.072;7.800;2023-02-13T08:19:55;101412.50;;;1.05;96.12
63552;BME280;49698;48.072;7.800;2023-02-13T08:22:25;101401.41;;;1.10;96.17
63552;BME280;49698;48.072;7.800;2023-02-13T08:24:52;101405.84;;;1.17;95.79
63552;BME280;49698;48.072;7.800;2023-02-13T08:27:20;101395.03;;;1.27;95.52
63552;BME280;49698;48.072;7.800;2023-02-13T08:29:49;101401.44;;;1.41;95.03
63552;BME280;49698;48.072;7.800;2023-02-13T08:32:17;101408.66;;;1.47;95.10
63552;BME280;49698;48.072;7.800;2023-02-13T08:34:45;101406.16;;;1.54;94.98
63552;BME280;49698;48.072;7.800;2023-02-13T08:37:14;101408.94;;;1.60;94.78
63552;BME280;49698;48.072;7.800;2023-02-13T08:39:43;101416.16;;;1.66;94.43
63552;BME280;49698;48.072;7.800;2023-02-13T08:42:11;101414.41;;;1.82;94.34
63552;BME280;49698;48.072;7.800;2023-02-13T08:44:40;101414.91;;;2.08;94.02
63552;BME280;49698;48.072;7.800;2023-02-13T08:47:08;101406.59;;;2.49;92.56
63552;BME280;49698;48.072;7.800;2023-02-13T08:49:37;101415.06;;;2.97;90.47
63552;BME280;49698;48.072;7.800;2023-02-13T08:52:05;101414.16;;;3.19;89.45
63552;BME280;49698;48.072;7.800;2023-02-13T08:54:33;101409.00;;;3.33;88.79
63552;BME280;49698;48.072;7.800;2023-02-13T08:57:03;101405.84;;;3.44;88.36
63552;BME280;49698;48.072;7.800;2023-02-13T08:59:31;101404.63;;;3.61;88.02
63552;BME280;49698;48.072;7.800;2023-02-13T09:01:59;101397.88;;;3.80;87.31
63552;BME280;49698;48.072;7.800;2023-02-13T09:04:27;101400.66;;;4.15;86.25
63552;BME280;49698;48.072;7.800;2023-02-13T09:06:54;101400.19;;;4.89;83.90
63552;BME280;49698;48.072;7.800;2023-02-13T09:09:23;101399.72;;;5.88;79.89
63552;BME280;49698;48.072;7.800;2023-02-13T09:11:50;101399.78;;;6.68;77.12
63552;BME280;49698;48.072;7.800;2023-02-13T09:14:23;101405.66;;;7.09;74.84
63552;BME280;49698;48.072;7.800;2023-02-13T09:16:51;101392.97;;;7.43;73.86
63552;BME280;49698;48.072;7.800;2023-02-13T09:19:19;101390.94;;;7.77;72.39
63552;BME280;49698;48.072;7.800;2023-02-13T09:21:46;101393.41;;;8.10;71.03
63552;BME280;49698;48.072;7.800;2023-02-13T09:24:14;101389.84;;;8.16;70.52
63552;BME280;49698;48.072;7.800;2023-02-13T09:26:42;101388.81;;;8.17;70.62
63552;BME280;49698;48.072;7.800;2023-02-13T09:29:10;101396.19;;;8.22;70.88
63552;BME280;49698;48.072;7.800;2023-02-13T09:31:39;101388.25;;;8.40;70.39
63552;BME280;49698;48.072;7.800;2023-02-13T09:34:07;101395.88;;;8.62;70.03
63552;BME280;49698;48.072;7.800;2023-02-13T09:36:36;101389.56;;;8.93;68.97
63552;BME280;49698;48.072;7.800;2023-02-13T09:39:03;101383.97;;;9.31;67.95
63552;BME280;49698;48.072;7.800;2023-02-13T09:41:34;101378.44;;;9.74;66.58
63552;BME280;49698;48.072;7.800;2023-02-13T09:44:06;101378.41;;;10.04;65.72
63552;BME280;49698;48.072;7.800;2023-02-13T09:47:03;101381.50;;;10.32;64.63
63552;BME280;49698;48.072;7.800;2023-02-13T09:49:36;101382.69;;;10.36;63.92
63552;BME280;49698;48.072;7.800;2023-02-13T09:52:07;101378.13;;;10.36;64.09
63552;BME280;49698;48.072;7.800;2023-02-13T09:54:35;101381.75;;;10.30;64.00
63552;BME280;49698;48.072;7.800;2023-02-13T09:57:07;101378.38;;;10.46;63.69
63552;BME280;49698;48.072;7.800;2023-02-13T09:59:46;101387.50;;;10.69;63.17
63552;BME280;49698;48.072;7.800;2023-02-13T10:02:32;101379.28;;;10.87;62.66
63552;BME280;49698;48.072;7.800;2023-02-13T10:05:13;101377.19;;;10.89;62.16
63552;BME280;49698;48.072;7.800;2023-02-13T10:07:47;101378.91;;;10.95;62.15
63552;BME280;49698;48.072;7.800;2023-02-13T10:10:27;101369.66;;;10.91;61.98
63552;BME280;49698;48.072;7.800;2023-02-13T10:13:06;101366.31;;;10.84;61.99
63552;BME280;49698;48.072;7.800;2023-02-13T10:15:46;101369.47;;;10.69;61.98
63552;BME280;49698;48.072;7.800;2023-02-13T10:18:18;101365.38;;;10.43;62.84
63552;BME280;49698;48.072;7.800;2023-02-13T10:20:50;101364.63;;;10.13;63.40
63552;BME280;49698;48.072;7.800;2023-02-13T10:23:23;101363.94;;;9.75;64.41
63552;BME280;49698;48.072;7.800;2023-02-13T10:25:56;101365.63;;;9.46;65.25
63552;BME280;49698;48.072;7.800;2023-02-13T10:28:33;101361.31;;;9.27;66.45
63552;BME280;49698;48.072;7.800;2023-02-13T10:31:05;101360.59;;;9.20;66.83
63552;BME280;49698;48.072;7.800;2023-02-13T10:33:41;101355.97;;;9.09;67.09
63552;BME280;49698;48.072;7.800;2023-02-13T10:36:15;101355.75;;;8.92;67.72
63552;BME280;49698;48.072;7.800;2023-02-13T10:38:56;101356.81;;;8.72;68.43
63552;BME280;49698;48.072;7.800;2023-02-13T10:41:39;101353.22;;;8.60;69.08
63552;BME280;49698;48.072;7.800;2023-02-13T10:44:32;101348.97;;;8.52;68.71
63552;BME280;49698;48.072;7.800;2023-02-13T10:47:13;101344.03;;;8.49;69.01
63552;BME280;49698;48.072;7.800;2023-02-13T10:49:57;101340.59;;;8.42;69.50
63552;BME280;49698;48.072;7.800;2023-02-13T10:52:37;101343.53;;;8.34;69.92
63552;BME280;49698;48.072;7.800;2023-02-13T10:55:23;101333.91;;;8.26;70.17
63552;BME280;49698;48.072;7.800;2023-02-13T10:58:03;101327.91;;;8.31;70.35
63552;BME280;49698;48.072;7.800;2023-02-13T11:00:37;101325.81;;;8.33;70.15
63552;BME280;49698;48.072;7.800;2023-02-13T11:03:16;101318.38;;;8.35;70.24
63552;BME280;49698;48.072;7.800;2023-02-13T11:05:47;101318.38;;;8.35;70.31
63552;BME280;49698;48.072;7.800;2023-02-13T11:08:19;101320.84;;;8.37;70.51
63552;BME280;49698;48.072;7.800;2023-02-13T11:10:48;101317.75;;;8.40;70.33
63552;BME280;49698;48.072;7.800;2023-02-13T11:13:18;101323.47;;;8.43;70.39
63552;BME280;49698;48.072;7.800;2023-02-13T11:15:57;101323.56;;;8.55;70.37
63552;BME280;49698;48.072;7.800;2023-02-13T11:18:28;101325.13;;;8.63;69.88
63552;BME280;49698;48.072;7.800;2023-02-13T11:21:08;101317.31;;;8.61;70.51
63552;BME280;49698;48.072;7.800;2023-02-13T11:23:41;101312.53;;;8.63;70.24
63552;BME280;49698;48.072;7.800;2023-02-13T11:26:12;101310.72;;;8.64;70.88
63552;BME280;49698;48.072;7.800;2023-02-13T11:28:48;101309.66;;;8.65;70.77
63552;BME280;49698;48.072;7.800;2023-02-13T11:31:25;101314.59;;;8.68;70.74
63552;BME280;49698;48.072;7.800;2023-02-13T11:33:55;101306.75;;;8.66;70.34
63552;BME280;49698;48.072;7.800;2023-02-13T11:36:28;101315.31;;;8.75;70.35
63552;BME280;49698;48.072;7.800;2023-02-13T11:38:59;101314.28;;;8.76;70.27
63552;BME280;49698;48.072;7.800;2023-02-13T11:41:28;101305.41;;;8.75;70.14
63552;BME280;49698;48.072;7.800;2023-02-13T11:43:58;101306.22;;;8.76;70.21
63552;BME280;49698;48.072;7.800;2023-02-13T11:46:42;101306.06;;;8.71;70.16
63552;BME280;49698;48.072;7.800;2023-02-13T11:49:16;101308.75;;;8.71;70.18
63552;BME280;49698;48.072;7.800;2023-02-13T11:51:48;101305.50;;;8.69;70.44
63552;BME280;49698;48.072;7.800;2023-02-13T11:54:23;101300.56;;;8.66;70.52
63552;BME280;49698;48.072;7.800;2023-02-13T11:56:54;101294.63;;;8.64;70.74
63552;BME280;49698;48.072;7.800;2023-02-13T11:59:37;101298.50;;;8.68;70.79
63552;BME280;49698;48.072;7.800;2023-02-13T12:02:15;101303.00;;;8.67;70.52
63552;BME280;49698;48.072;7.800;2023-02-13T12:04:44;101292.66;;;8.71;70.40
63552;BME280;49698;48.072;7.800;2023-02-13T12:07:18;101286.78;;;8.80;70.59
63552;BME280;49698;48.072;7.800;2023-02-13T12:09:48;101282.91;;;8.95;69.97
63552;BME280;49698;48.072;7.800;2023-02-13T12:12:21;101289.16;;;9.07;69.57
63552;BME280;49698;48.072;7.800;2023-02-13T12:14:52;101287.78;;;9.16;69.41
63552;BME280;49698;48.072;7.800;2023-02-13T12:17:21;101287.09;;;9.21;69.44
63552;BME280;49698;48.072;7.800;2023-02-13T12:19:57;101290.38;;;9.23;69.64
63552;BME280;49698;48.072;7.800;2023-02-13T12:22:38;101291.44;;;9.22;69.79
63552;BME280;49698;48.072;7.800;2023-02-13T12:28:12;101288.75;;;9.22;70.11
63552;BME280;49698;48.072;7.800;2023-02-13T12:30:54;101287.91;;;9.21;70.31
63552;BME280;49698;48.072;7.800;2023-02-13T12:36:36;101288.31;;;9.37;70.23
63552;BME280;49698;48.072;7.800;2023-02-13T12:39:17;101286.81;;;9.41;70.18
63552;BME280;49698;48.072;7.800;2023-02-13T12:41:53;101284.97;;;9.41;70.10
63552;BME280;49698;48.072;7.800;2023-02-13T12:44:36;101279.91;;;9.33;70.09
63552;BME280;49698;48.072;7.800;2023-02-13T12:47:15;101279.66;;;9.23;70.54
63552;BME280;49698;48.072;7.800;2023-02-13T12:50:00;101285.81;;;9.23;70.63
63552;BME280;49698;48.072;7.800;2023-02-13T12:53:03;101289.56;;;9.22;70.61
63552;BME280;49698;48.072;7.800;2023-02-13T12:55:49;101273.41;;;9.11;70.33
63552;BME280;49698;48.072;7.800;2023-02-13T12:58:40;101272.69;;;9.03;70.27
63552;BME280;49698;48.072;7.800;2023-02-13T13:01:21;101272.84;;;8.90;70.72
63552;BME280;49698;48.072;7.800;2023-02-13T13:04:01;101269.66;;;8.81;71.30
63552;BME280;49698;48.072;7.800;2023-02-13T13:06:49;101270.94;;;8.79;71.46
63552;BME280;49698;48.072;7.800;2023-02-13T13:09:39;101269.88;;;8.80;71.28
63552;BME280;49698;48.072;7.800;2023-02-13T13:12:23;101271.97;;;8.78;71.18
63552;BME280;49698;48.072;7.800;2023-02-13T13:14:58;101254.56;;;8.69;71.78
63552;BME280;49698;48.072;7.800;2023-02-13T13:17:44;101264.47;;;8.68;71.31
63552;BME280;49698;48.072;7.800;2023-02-13T13:20:36;101259.78;;;8.64;71.46
63552;BME280;49698;48.072;7.800;2023-02-13T13:23:14;101266.78;;;8.65;71.91
63552;BME280;49698;48.072;7.800;2023-02-13T13:25:50;101268.78;;;8.69;72.10
63552;BME280;49698;48.072;7.800;2023-02-13T13:28:27;101267.50;;;8.72;71.42
63552;BME280;49698;48.072;7.800;2023-02-13T13:30:56;101257.81;;;8.71;71.85
63552;BME280;49698;48.072;7.800;2023-02-13T13:33:26;101258.72;;;8.65;71.90